首页
METAR-TAF:

METAR-TAF

机场 :

雷克雅維克, 冰岛

纬度: 64-08N, 经度: 021-54W, 海拔: 54米

当前天气观测

该预报发布于55分钟前的17:00 UTC
风速14节,风向
温度 5°C
湿度 60%
气压 1003 hPa
能见度10公里或以上
少量云层高于4000英尺

METAR: BIRK 201700Z 10014KT 9999 FEW040 05/M02 Q1003

时间: 17:55 (17:55 UTC)

预报

该预报发布于1小时和54分钟前的16:01 UTC
预报有效从20日的 18点(UTC)到 21日的 18点(UTC)
风速13节,风向
能见度10公里或以上
少量云层高于3500英尺
散云层高于4500英尺
成为
从 21日的 06点(UTC)到 21日的 08点(UTC)
多云层高于1500英尺
阴天层高于2500英尺
小雨
几率 40% :
短暂存在
从 21日的 07点(UTC)到 21日的 18点(UTC)
能見度: 5000
阴天层高于1500英尺
雨, 轻雾

TAF: BIRK 201601Z 2018/2118 09013KT 9999 FEW035 SCT045 TX06/2115Z TN02/2100Z BECMG 2106/2108 -RA BKN015 OVC025 PROB40 TEMPO 2107/2118 5000 RA BR OVC015

超过4000个机场的气象观测和天气预报(METAR&TAF报告)。

可查询的气象台以黄色和红色小点在地图上表示。

将鼠标移到小点上方,可查看气象台名称。

然后点击查看天气观测和预报。

如需切换地图:点击带黑十字的绿色按钮放大地图;点击带横线的绿色按钮缩小地图;或者点击绿色箭头查看邻近地区的地图。


METAR-TAF: